Terminal Aerodrome Forecast
Issued by NWS Caribou, ME

Home | Current Version | Previous Version | Text Only | Print | Product List | Glossary On
Versions: 1 2 3 4 5 6 7 8 9 10 11 12 13 14 15 16 17 18 19 20 21 22 23 24
000
FTUS41 KCAR 010540
TAFBGR
TAF
KBGR 010540Z 0106/0206 25004KT P6SM SCT200
     FM011500 20008KT P6SM VCSH BKN060
     FM011800 21010KT P6SM VCTS SCT030 BKN050CB
     FM012300 24006KT P6SM BKN045=

USA.gov is the U.S. government's official web portal to all federal, state and local government web resources and services.